createdAt,value
2023-03-05T00:01:16.433Z,12.18
2023-03-05T00:03:43.136Z,12.18
2023-03-05T00:06:09.804Z,16.30
2023-03-05T00:08:36.469Z,17.20
2023-03-05T00:11:05.059Z,17.17
2023-03-05T00:13:32.883Z,18.48
2023-03-05T00:16:02.845Z,14.73
2023-03-05T00:18:29.449Z,14.38
2023-03-05T00:20:56.489Z,15.55
2023-03-05T00:23:23.078Z,14.15
2023-03-05T00:25:49.749Z,14.85
2023-03-05T00:28:16.332Z,18.30
2023-03-05T00:30:43.015Z,12.77
2023-03-05T00:33:13.740Z,14.27
2023-03-05T00:35:40.625Z,11.45
2023-03-05T00:38:07.309Z,12.25
2023-03-05T00:40:36.526Z,17.92
2023-03-05T00:43:03.400Z,13.07
2023-03-05T00:45:30.024Z,18.90
2023-03-05T00:47:56.574Z,17.00
2023-03-05T00:50:25.009Z,14.80
2023-03-05T00:52:52.117Z,15.40
2023-03-05T00:55:18.751Z,14.82
2023-03-05T00:57:45.528Z,12.65
2023-03-05T01:00:13.789Z,14.20
2023-03-05T01:02:40.676Z,13.20
2023-03-05T01:05:10.158Z,14.70
2023-03-05T01:07:38.328Z,14.25
2023-03-05T01:10:06.309Z,15.15
2023-03-05T01:12:32.966Z,11.98
2023-03-05T01:14:59.550Z,12.88
2023-03-05T01:17:26.125Z,11.93
2023-03-05T01:19:52.693Z,12.20
2023-03-05T01:22:19.303Z,13.45
2023-03-05T01:24:47.359Z,14.05
2023-03-05T01:27:13.950Z,18.23
2023-03-05T01:29:40.884Z,13.43
2023-03-05T01:32:07.482Z,11.23
2023-03-05T01:34:36.328Z,12.00
2023-03-05T01:37:03.163Z,15.13
2023-03-05T01:39:29.700Z,14.77
2023-03-05T01:41:57.660Z,16.10
2023-03-05T01:44:26.114Z,13.30
2023-03-05T01:46:53.259Z,11.10
2023-03-05T01:49:24.473Z,14.35
2023-03-05T01:51:58.871Z,13.93
2023-03-05T01:54:29.245Z,20.08
2023-03-05T01:57:00.333Z,17.25
2023-03-05T01:59:27.755Z,18.40
2023-03-05T02:01:57.630Z,18.63
2023-03-05T02:04:32.329Z,14.07
2023-03-05T02:06:59.522Z,11.57
2023-03-05T02:09:27.310Z,17.13
2023-03-05T02:11:55.203Z,19.02
2023-03-05T02:14:23.354Z,16.63
2023-03-05T02:16:50.479Z,17.48
2023-03-05T02:19:17.506Z,16.20
2023-03-05T02:21:47.220Z,13.90
2023-03-05T02:24:16.121Z,15.65
2023-03-05T02:26:43.316Z,10.45
2023-03-05T02:29:12.867Z,13.10
2023-03-05T02:31:39.561Z,15.43
2023-03-05T02:34:06.327Z,15.38
2023-03-05T02:36:33.717Z,15.13
2023-03-05T02:39:02.127Z,15.60
2023-03-05T02:41:28.933Z,12.40
2023-03-05T02:43:58.025Z,10.77
2023-03-05T02:46:25.346Z,17.52
2023-03-05T02:48:51.925Z,10.73
2023-03-05T02:51:19.000Z,11.43
2023-03-05T02:53:46.937Z,15.95
2023-03-05T02:56:15.508Z,16.58
2023-03-05T02:58:42.091Z,8.50
2023-03-05T03:01:09.653Z,13.43
2023-03-05T03:03:36.556Z,10.27
2023-03-05T03:06:03.475Z,8.25
2023-03-05T03:08:30.030Z,9.95
2023-03-05T03:10:56.634Z,12.15
2023-03-05T03:13:24.747Z,10.65
2023-03-05T03:15:51.308Z,8.25
2023-03-05T03:18:17.902Z,14.68
2023-03-05T03:20:44.622Z,8.88
2023-03-05T03:23:11.151Z,13.18
2023-03-05T03:25:37.707Z,11.88
2023-03-05T03:28:04.273Z,9.70
2023-03-05T03:30:32.242Z,10.63
2023-03-05T03:32:58.849Z,9.27
2023-03-05T03:35:25.405Z,10.63
2023-03-05T03:37:51.941Z,13.75
2023-03-05T03:40:18.729Z,11.48
2023-03-05T03:42:45.289Z,14.07
2023-03-05T03:45:13.031Z,10.32
2023-03-05T03:47:40.963Z,8.05
2023-03-05T03:50:08.699Z,7.18
2023-03-05T03:52:35.265Z,10.77
2023-03-05T03:55:01.846Z,11.27
2023-03-05T03:57:29.623Z,10.60
2023-03-05T03:59:56.265Z,9.57
2023-03-05T04:02:23.102Z,9.95
2023-03-05T04:04:51.147Z,10.15
2023-03-05T04:07:18.040Z,10.25
2023-03-05T04:09:45.151Z,14.40
2023-03-05T04:12:11.925Z,9.73
2023-03-05T04:14:38.496Z,6.07
2023-03-05T04:17:05.105Z,8.23
2023-03-05T04:19:31.607Z,8.32
2023-03-05T04:21:59.506Z,8.05
2023-03-05T04:24:26.051Z,11.45
2023-03-05T04:26:52.666Z,13.75
2023-03-05T04:29:19.476Z,8.93
2023-03-05T04:31:46.317Z,6.35
2023-03-05T04:34:12.902Z,11.27
2023-03-05T04:36:39.723Z,5.55
2023-03-05T04:39:07.674Z,7.80
2023-03-05T04:41:34.225Z,10.23
2023-03-05T04:44:00.738Z,7.95
2023-03-05T04:46:27.287Z,7.57
2023-03-05T04:48:53.914Z,8.95
2023-03-05T04:51:20.476Z,14.52
2023-03-05T04:53:47.077Z,8.52
2023-03-05T04:56:14.956Z,9.43
2023-03-05T04:58:41.522Z,6.00
2023-03-05T05:01:08.071Z,7.47
2023-03-05T05:03:34.661Z,9.45
2023-03-05T05:06:01.754Z,8.05
2023-03-05T05:08:28.899Z,7.88
2023-03-05T05:10:57.139Z,9.88
2023-03-05T05:13:25.921Z,7.90
2023-03-05T05:15:52.865Z,7.97
2023-03-05T05:18:19.937Z,9.43
2023-03-05T05:20:46.812Z,10.00
2023-03-05T05:23:13.568Z,8.73
2023-03-05T05:25:40.140Z,6.72
2023-03-05T05:28:06.960Z,8.60
2023-03-05T05:30:35.025Z,5.90
2023-03-05T05:33:01.642Z,6.85
2023-03-05T05:35:28.495Z,9.05
2023-03-05T05:37:55.052Z,12.30
2023-03-05T05:40:21.604Z,7.70
2023-03-05T05:42:48.214Z,8.68
2023-03-05T05:45:14.844Z,7.88
2023-03-05T05:47:42.750Z,14.35
2023-03-05T05:50:11.325Z,7.47
2023-03-05T05:52:37.903Z,6.25
2023-03-05T05:55:05.598Z,10.27
2023-03-05T05:57:32.234Z,9.07
2023-03-05T05:59:58.786Z,8.68
2023-03-05T06:02:25.430Z,8.00
2023-03-05T06:04:53.301Z,9.90
2023-03-05T06:07:19.868Z,11.07
2023-03-05T06:09:46.402Z,9.05
2023-03-05T06:12:12.929Z,9.48
2023-03-05T06:14:39.482Z,6.68
2023-03-05T06:17:06.007Z,9.07
2023-03-05T06:19:32.776Z,6.72
2023-03-05T06:22:00.707Z,10.52
2023-03-05T06:24:27.520Z,6.22
2023-03-05T06:26:54.043Z,8.07
2023-03-05T06:29:20.590Z,7.55
2023-03-05T06:31:47.118Z,10.23
2023-03-05T06:34:13.929Z,6.93
2023-03-05T06:36:40.478Z,9.00
2023-03-05T06:39:08.608Z,11.48
2023-03-05T06:41:35.185Z,11.80
2023-03-05T06:44:02.467Z,12.80
2023-03-05T06:46:30.560Z,5.70
2023-03-05T06:48:59.923Z,9.13
2023-03-05T06:51:28.621Z,9.68
2023-03-05T06:53:56.830Z,12.07
2023-03-05T06:56:24.801Z,12.07
2023-03-05T06:58:52.136Z,8.35
2023-03-05T07:01:19.397Z,17.33
2023-03-05T07:03:49.566Z,9.82
2023-03-05T07:06:16.533Z,10.15
2023-03-05T07:08:43.649Z,7.38
2023-03-05T07:11:10.758Z,11.85
2023-03-05T07:13:38.734Z,10.00
2023-03-05T07:16:07.207Z,13.50
2023-03-05T07:18:34.209Z,7.25
2023-03-05T07:21:02.919Z,15.40
2023-03-05T07:23:29.451Z,12.00
2023-03-05T07:25:56.146Z,11.70
2023-03-05T07:28:23.432Z,8.65
2023-03-05T07:30:57.029Z,6.57
2023-03-05T07:33:24.094Z,8.38
2023-03-05T07:35:50.685Z,7.93
2023-03-05T07:38:17.403Z,6.80
2023-03-05T07:40:44.234Z,13.98
2023-03-05T07:43:11.179Z,15.35
2023-03-05T07:45:40.146Z,8.38
2023-03-05T07:48:13.446Z,8.90
2023-03-05T07:50:40.431Z,6.35
2023-03-05T07:53:07.097Z,10.88
2023-03-05T07:55:33.974Z,10.90
2023-03-05T07:58:00.567Z,6.90
2023-03-05T08:00:27.361Z,11.70
2023-03-05T08:02:53.961Z,6.90
2023-03-05T08:05:21.872Z,12.43
2023-03-05T08:07:48.403Z,6.97
2023-03-05T08:10:15.027Z,9.05
2023-03-05T08:12:41.815Z,6.85
2023-03-05T08:15:09.149Z,10.63
2023-03-05T08:17:35.793Z,9.60
2023-03-05T08:20:02.449Z,9.23
2023-03-05T08:22:30.324Z,7.63
2023-03-05T08:24:57.264Z,12.10
2023-03-05T08:27:23.797Z,8.35
2023-03-05T08:29:50.451Z,12.70
2023-03-05T08:32:17.165Z,11.02
2023-03-05T08:34:44.150Z,11.10
2023-03-05T08:37:10.685Z,8.38
2023-03-05T08:39:38.645Z,9.85
2023-03-05T08:42:08.827Z,9.93
2023-03-05T08:44:35.641Z,11.20
2023-03-05T08:47:02.184Z,7.85
2023-03-05T08:49:28.772Z,11.20
2023-03-05T08:51:55.290Z,10.57
2023-03-05T08:54:21.977Z,7.90
2023-03-05T08:56:50.141Z,9.43
2023-03-05T08:59:16.761Z,10.02
2023-03-05T09:01:43.364Z,7.78
2023-03-05T09:04:10.042Z,7.82
2023-03-05T09:06:36.735Z,12.90
2023-03-05T09:09:03.567Z,13.05
2023-03-05T09:11:30.225Z,10.57
2023-03-05T09:13:58.233Z,8.77
2023-03-05T09:16:24.810Z,8.43
2023-03-05T09:18:51.483Z,11.18
2023-03-05T09:21:18.100Z,9.60
2023-03-05T09:23:45.225Z,12.98
2023-03-05T09:26:12.856Z,9.80
2023-03-05T09:28:39.562Z,10.10
2023-03-05T09:31:09.226Z,9.85
2023-03-05T09:33:37.393Z,10.75
2023-03-05T09:36:05.034Z,13.70
2023-03-05T09:38:31.810Z,9.52
2023-03-05T09:41:03.094Z,11.85
2023-03-05T09:43:40.181Z,8.68
2023-03-05T09:46:18.528Z,9.93
2023-03-05T09:48:51.525Z,14.75
2023-03-05T09:51:22.665Z,9.98
2023-03-05T09:53:54.721Z,14.48
2023-03-05T09:58:54.638Z,9.63
2023-03-05T10:01:29.057Z,13.00
2023-03-05T10:03:57.678Z,11.45
2023-03-05T10:06:27.129Z,12.95
2023-03-05T10:08:56.525Z,8.80
2023-03-05T10:11:38.046Z,9.93
2023-03-05T10:14:05.150Z,10.32
2023-03-05T10:16:49.417Z,9.88
2023-03-05T10:19:29.356Z,13.48
2023-03-05T10:22:11.044Z,13.43
2023-03-05T10:24:50.214Z,15.63
2023-03-05T10:27:20.431Z,10.85
2023-03-05T10:30:03.073Z,12.65
2023-03-05T10:32:40.562Z,13.43
2023-03-05T10:35:19.676Z,10.13
2023-03-05T10:38:04.229Z,11.65
2023-03-05T10:40:36.274Z,10.45
2023-03-05T10:43:12.956Z,12.93
2023-03-05T10:45:43.048Z,17.13
2023-03-05T10:48:19.153Z,11.63
2023-03-05T10:50:49.855Z,14.85
2023-03-05T10:53:24.204Z,13.70
2023-03-05T10:55:50.922Z,15.60
2023-03-05T10:58:17.929Z,8.68
2023-03-05T11:00:58.949Z,13.02
2023-03-05T11:03:45.285Z,23.13
2023-03-05T11:06:12.800Z,10.35
2023-03-05T11:08:39.752Z,8.35
2023-03-05T11:11:16.563Z,16.50
2023-03-05T11:13:56.283Z,14.30
2023-03-05T11:16:25.111Z,12.25
2023-03-05T11:19:15.573Z,11.57
2023-03-05T11:21:43.991Z,9.80
2023-03-05T11:24:13.345Z,11.40
2023-03-05T11:26:46.904Z,15.90
2023-03-05T11:29:18.798Z,13.75
2023-03-05T11:34:29.215Z,13.35
2023-03-05T11:37:00.794Z,11.85
2023-03-05T11:39:27.897Z,8.48
2023-03-05T11:41:58.930Z,11.48
2023-03-05T11:44:29.360Z,13.30
2023-03-05T11:47:00.267Z,11.23
2023-03-05T11:49:30.135Z,10.50
2023-03-05T11:52:03.723Z,8.70
2023-03-05T11:54:36.775Z,9.20
2023-03-05T11:57:05.977Z,10.05
2023-03-05T11:59:37.345Z,10.07
2023-03-05T12:02:14.163Z,13.35
2023-03-05T12:04:42.066Z,12.20
2023-03-05T12:07:13.458Z,15.57
2023-03-05T12:09:42.763Z,14.88
2023-03-05T12:12:23.263Z,12.75
2023-03-05T12:14:56.702Z,11.95
2023-03-05T12:17:30.871Z,11.50
2023-03-05T12:20:05.980Z,10.95
2023-03-05T12:22:37.190Z,12.02
2023-03-05T12:25:34.506Z,14.45
2023-03-05T12:28:01.803Z,13.68
2023-03-05T12:30:53.502Z,11.98
2023-03-05T12:33:34.399Z,13.82
2023-03-05T12:36:37.228Z,13.05
2023-03-05T12:39:37.166Z,14.65
2023-03-05T12:42:51.550Z,10.25
2023-03-05T12:45:27.532Z,18.90
2023-03-05T12:48:31.454Z,13.10
2023-03-05T12:50:58.644Z,10.98
2023-03-05T12:53:25.126Z,10.90
2023-03-05T12:55:58.063Z,9.70
2023-03-05T12:58:36.647Z,13.32
2023-03-05T13:01:14.370Z,14.82
2023-03-05T13:03:48.426Z,11.20
2023-03-05T13:06:28.275Z,11.90
2023-03-05T13:08:59.831Z,12.30
2023-03-05T13:11:28.267Z,12.10
2023-03-05T13:13:57.578Z,13.10
2023-03-05T13:16:27.246Z,12.43
2023-03-05T13:18:54.846Z,14.73
2023-03-05T13:21:25.564Z,12.68
2023-03-05T13:23:53.341Z,12.80
2023-03-05T13:26:20.546Z,14.35
2023-03-05T13:31:43.059Z,11.60
2023-03-05T13:34:15.867Z,12.40
2023-03-05T13:36:47.616Z,13.27
2023-03-05T13:39:21.687Z,12.50
2023-03-05T13:41:59.884Z,18.90
2023-03-05T13:44:28.408Z,10.57
2023-03-05T13:47:07.519Z,12.38
2023-03-05T13:49:34.168Z,10.30
2023-03-05T13:52:00.702Z,10.50
2023-03-05T13:54:28.594Z,13.35
2023-03-05T13:56:57.135Z,11.43
2023-03-05T13:59:25.334Z,10.15
2023-03-05T14:01:53.856Z,10.40
2023-03-05T14:04:23.503Z,12.70
2023-03-05T14:06:54.786Z,12.05
2023-03-05T14:09:24.183Z,13.50
2023-03-05T14:11:56.128Z,10.70
2023-03-05T14:14:24.486Z,12.70
2023-03-05T14:16:53.669Z,13.90
2023-03-05T14:19:34.322Z,14.32
2023-03-05T14:22:01.756Z,14.50
2023-03-05T14:24:29.193Z,11.30
2023-03-05T14:26:56.910Z,11.35
2023-03-05T14:29:26.170Z,16.13
2023-03-05T14:31:57.585Z,11.43
2023-03-05T14:34:29.477Z,13.38
2023-03-05T14:39:31.298Z,12.70
2023-03-05T14:42:27.668Z,15.20
2023-03-05T14:44:55.300Z,12.68
2023-03-05T14:47:23.326Z,20.27
2023-03-05T14:49:50.374Z,13.02
2023-03-05T14:52:19.008Z,13.10
2023-03-05T14:54:46.360Z,11.90
2023-03-05T14:57:16.713Z,13.10
2023-03-05T14:59:43.484Z,11.02
2023-03-05T15:02:15.006Z,15.48
2023-03-05T15:04:43.079Z,13.05
2023-03-05T15:07:16.188Z,22.95
2023-03-05T15:09:42.871Z,13.60
2023-03-05T15:12:11.365Z,12.77
2023-03-05T15:14:37.993Z,15.18
2023-03-05T15:17:04.830Z,11.50
2023-03-05T15:19:31.461Z,12.15
2023-03-05T15:21:59.415Z,11.80
2023-03-05T15:24:26.014Z,10.43
2023-03-05T15:26:52.710Z,13.45
2023-03-05T15:29:19.526Z,10.32
2023-03-05T15:31:46.063Z,11.68
2023-03-05T15:34:12.723Z,14.68
2023-03-05T15:36:39.247Z,12.73
2023-03-05T15:39:07.231Z,11.90
2023-03-05T15:41:33.994Z,18.25
2023-03-05T15:44:00.690Z,11.55
2023-03-05T15:46:27.325Z,12.13
2023-03-05T15:48:54.021Z,9.90
2023-03-05T15:51:20.638Z,9.52
2023-03-05T15:53:47.508Z,9.05
2023-03-05T15:56:16.177Z,12.15
2023-03-05T15:58:42.830Z,9.30
2023-03-05T16:01:09.393Z,7.43
2023-03-05T16:03:36.063Z,11.10
2023-03-05T16:06:03.147Z,8.68
2023-03-05T16:08:29.787Z,9.18
2023-03-05T16:10:56.312Z,10.07
2023-03-05T16:13:24.429Z,11.68
2023-03-05T16:15:50.971Z,8.02
2023-03-05T16:18:17.569Z,7.65
2023-03-05T16:20:44.613Z,9.57
2023-03-05T16:23:11.480Z,9.40
2023-03-05T16:25:38.313Z,7.35
2023-03-05T16:28:05.462Z,8.13
2023-03-05T16:30:33.630Z,9.82
2023-03-05T16:33:00.368Z,8.13
2023-03-05T16:35:26.934Z,10.35
2023-03-05T16:37:53.640Z,7.97
2023-03-05T16:40:20.197Z,11.27
2023-03-05T16:42:46.943Z,8.55
2023-03-05T16:45:13.507Z,11.13
2023-03-05T16:47:41.535Z,11.15
2023-03-05T16:50:10.036Z,10.30
2023-03-05T16:52:37.089Z,12.05
2023-03-05T16:55:03.846Z,11.45
2023-03-05T16:57:30.582Z,10.80
2023-03-05T16:59:57.495Z,12.25
2023-03-05T17:02:24.289Z,8.48
2023-03-05T17:04:52.160Z,10.43
2023-03-05T17:07:18.849Z,8.90
2023-03-05T17:09:45.561Z,8.77
2023-03-05T17:12:12.107Z,8.73
2023-03-05T17:14:38.633Z,10.48
2023-03-05T17:17:05.309Z,10.75
2023-03-05T17:19:31.854Z,13.15
2023-03-05T17:21:59.789Z,9.77
2023-03-05T17:24:26.297Z,9.75
2023-03-05T17:26:52.950Z,12.73
2023-03-05T17:29:19.555Z,10.32
2023-03-05T17:31:46.259Z,12.48
2023-03-05T17:34:12.954Z,15.30
2023-03-05T17:36:39.666Z,22.58
2023-03-05T17:39:07.560Z,16.15
2023-03-05T17:41:34.194Z,11.70
2023-03-05T17:44:00.757Z,11.40
2023-03-05T17:46:27.397Z,11.80
2023-03-05T17:48:55.137Z,12.45
2023-03-05T17:51:21.785Z,13.27
2023-03-05T17:53:48.335Z,11.52
2023-03-05T17:56:16.329Z,14.50
2023-03-05T17:58:42.980Z,16.55
2023-03-05T18:01:09.636Z,17.75
2023-03-05T18:03:37.162Z,17.25
2023-03-05T18:06:04.694Z,10.85
2023-03-05T18:08:31.356Z,11.88
2023-03-05T18:10:57.948Z,15.50
2023-03-05T18:13:25.825Z,13.32
2023-03-05T18:15:52.423Z,17.70
2023-03-05T18:18:18.927Z,16.80
2023-03-05T18:20:46.145Z,14.35
2023-03-05T18:23:12.936Z,19.55
2023-03-05T18:25:39.811Z,14.68
2023-03-05T18:28:08.404Z,14.25
2023-03-05T18:30:37.132Z,18.17
2023-03-05T18:33:04.516Z,16.15
2023-03-05T18:35:31.525Z,13.77
2023-03-05T18:37:58.174Z,16.42
2023-03-05T18:40:27.877Z,14.40
2023-03-05T18:42:54.403Z,15.15
2023-03-05T18:45:22.709Z,15.13
2023-03-05T18:47:50.702Z,15.60
2023-03-05T18:50:17.800Z,17.90
2023-03-05T18:52:44.716Z,19.60
2023-03-05T18:55:14.994Z,20.10
2023-03-05T18:57:41.792Z,18.60
2023-03-05T19:00:10.427Z,16.17
2023-03-05T19:02:37.002Z,20.27
2023-03-05T19:05:05.269Z,20.83
2023-03-05T19:07:31.905Z,16.08
2023-03-05T19:09:59.782Z,15.45
2023-03-05T19:12:28.089Z,15.63
2023-03-05T19:14:54.567Z,15.07
2023-03-05T19:17:21.170Z,19.65
2023-03-05T19:19:51.235Z,17.50
2023-03-05T19:22:22.176Z,20.00
2023-03-05T19:24:48.870Z,24.33
2023-03-05T19:27:15.364Z,19.20
2023-03-05T19:29:43.124Z,20.58
2023-03-05T19:32:11.590Z,21.60
2023-03-05T19:34:38.238Z,30.48
2023-03-05T19:37:05.528Z,20.27
2023-03-05T19:39:34.166Z,20.42
2023-03-05T19:42:00.820Z,20.73
2023-03-05T19:44:27.512Z,19.73
2023-03-05T19:46:54.271Z,16.05
2023-03-05T19:49:21.414Z,17.45
2023-03-05T19:51:48.502Z,20.30
2023-03-05T19:54:16.909Z,19.13
2023-03-05T19:56:46.485Z,22.13
2023-03-05T19:59:14.191Z,20.98
2023-03-05T20:01:40.894Z,20.90
2023-03-05T20:04:07.592Z,20.60
2023-03-05T20:06:34.262Z,20.38
2023-03-05T20:09:00.859Z,17.08
2023-03-05T20:11:28.475Z,15.38
2023-03-05T20:13:57.013Z,20.27
2023-03-05T20:16:26.253Z,21.50
2023-03-05T20:18:54.045Z,18.80
2023-03-05T20:21:22.274Z,22.95
2023-03-05T20:23:49.315Z,20.05
2023-03-05T20:26:15.970Z,18.70
2023-03-05T20:28:42.552Z,20.52
2023-03-05T20:31:10.485Z,20.10
2023-03-05T20:33:37.278Z,18.85
2023-03-05T20:36:04.283Z,24.23
2023-03-05T20:38:31.677Z,28.38
2023-03-05T20:41:00.218Z,26.33
2023-03-05T20:43:28.415Z,22.92
2023-03-05T20:45:56.388Z,19.50
2023-03-05T20:48:25.369Z,17.20
2023-03-05T20:50:51.958Z,17.45
2023-03-05T20:53:19.474Z,18.40
2023-03-05T20:55:46.473Z,18.85
2023-03-05T20:58:13.500Z,19.15
2023-03-05T21:00:40.850Z,19.40
2023-03-05T21:03:08.473Z,16.33
2023-03-05T21:05:36.748Z,21.05
2023-03-05T21:08:04.421Z,20.52
2023-03-05T21:10:31.779Z,19.52
2023-03-05T21:13:00.794Z,19.73
2023-03-05T21:15:30.009Z,18.67
2023-03-05T21:17:57.470Z,17.33
2023-03-05T21:20:26.129Z,17.33
2023-03-05T21:22:54.119Z,19.30
2023-03-05T21:25:22.336Z,18.33
2023-03-05T21:27:51.384Z,14.85
2023-03-05T21:30:19.216Z,18.25
2023-03-05T21:32:46.353Z,16.02
2023-03-05T21:35:16.666Z,16.60
2023-03-05T21:37:43.430Z,17.77
2023-03-05T21:40:14.470Z,19.42
2023-03-05T21:42:42.074Z,19.02
2023-03-05T21:45:11.882Z,17.98
2023-03-05T21:47:39.185Z,20.25
2023-03-05T21:50:07.334Z,15.63
2023-03-05T21:52:34.099Z,14.82
2023-03-05T21:55:00.676Z,17.08
2023-03-05T21:57:29.131Z,17.98
2023-03-05T21:59:56.124Z,17.25
2023-03-05T22:02:22.816Z,16.08
2023-03-05T22:04:49.540Z,15.32
2023-03-05T22:07:17.672Z,16.65
2023-03-05T22:09:44.510Z,18.63
2023-03-05T22:12:11.173Z,17.83
2023-03-05T22:14:39.059Z,17.60
2023-03-05T22:17:05.796Z,16.15
2023-03-05T22:19:32.642Z,20.95
2023-03-05T22:21:59.751Z,17.98
2023-03-05T22:24:26.409Z,17.20
2023-03-05T22:26:53.031Z,20.75
2023-03-05T22:29:19.596Z,17.33
2023-03-05T22:31:47.708Z,16.42
2023-03-05T22:34:14.253Z,16.85
2023-03-05T22:36:40.820Z,19.92
2023-03-05T22:39:07.357Z,16.63
2023-03-05T22:41:33.996Z,17.30
2023-03-05T22:44:00.503Z,17.58
2023-03-05T22:46:27.424Z,16.67
2023-03-05T22:48:55.374Z,18.33
2023-03-05T22:51:21.986Z,17.20
2023-03-05T22:53:48.599Z,18.38
2023-03-05T22:56:17.463Z,18.40
2023-03-05T22:58:44.137Z,17.65
2023-03-05T23:01:12.228Z,17.02
2023-03-05T23:03:39.157Z,18.25
2023-03-05T23:06:08.393Z,18.42
2023-03-05T23:08:35.015Z,17.75
2023-03-05T23:11:06.970Z,18.40
2023-03-05T23:15:59.948Z,19.65
2023-03-05T23:18:26.582Z,18.05
2023-03-05T23:20:53.163Z,16.60
2023-03-05T23:23:21.137Z,19.85
2023-03-05T23:25:50.259Z,19.65
2023-03-05T23:28:17.196Z,18.20
2023-03-05T23:30:43.789Z,20.13
2023-03-05T23:33:14.859Z,20.33
2023-03-05T23:35:43.244Z,21.07
2023-03-05T23:38:12.931Z,19.65
2023-03-05T23:40:43.380Z,20.65
2023-03-05T23:43:10.059Z,20.42
2023-03-05T23:45:36.968Z,17.35
2023-03-05T23:48:04.258Z,20.10
2023-03-05T23:50:33.386Z,20.77
2023-03-05T23:53:01.978Z,18.45
2023-03-05T23:55:31.047Z,20.23
2023-03-05T23:57:59.056Z,20.73
